ADDS METAR Data INFO
IDs: Format: Raw Decoded Include TAF

Data at: 0225 UTC 14 Dec 2017

K6A1 140215Z AUTO 23008KT 10SM 06/M07 A2991 RMK AO2 T00621071
K6A1 140155Z AUTO 22007KT 10SM 06/M07 A2992 RMK AO2 T00611073
K6A1 140135Z AUTO 23006KT 10SM 06/M08 A2992 RMK AO2 T00611076
K6A1 140115Z AUTO 23006KT 10SM 07/M08 A2992 RMK AO2 T00661080
K6A1 140055Z AUTO 22007KT 10SM 07/M08 A2991 RMK AO2 T00651081
K6A1 140035Z AUTO 22007KT 10SM 06/M09 A2992 RMK AO2 T00581086
K6A1 140015Z AUTO 23004KT 10SM 06/M09 A2994 RMK AO2 T00611091
K6A1 132355Z AUTO 23005KT 10SM 07/M09 A2995 RMK AO2 T00681092 10115 20068
K6A1 132335Z AUTO 23007KT 10SM 07/M10 A2995 RMK AO2 T00721096
K6A1 132315Z AUTO 23006KT 10SM 08/M10 A2995 RMK AO2 T00761099
K6A1 132255Z AUTO 23005KT 10SM 08/M10 A2995 RMK AO2 T00791103
K6A1 132235Z AUTO 24006KT 10SM 09/M10 A2995 RMK AO2 T00861105
K6A1 132215Z AUTO 23007KT 10SM 10/M11 A2995 RMK AO2 T00971108
K6A1 132155Z AUTO 24009G15KT 10SM 11/M12 A2997 RMK AO2 T01051118
K6A1 132135Z AUTO 25007KT 10SM 11/M12 A2998 RMK AO2 T01101117
K6A1 132115Z AUTO 24009G14KT 10SM 11/M13 A2997 RMK AO2 T01121127
K6A1 132055Z AUTO 22007KT 10SM 12/M12 A2997 RMK AO2 T01151119
K6A1 132035Z AUTO 23010G15KT 10SM 11/M12 A2997 RMK AO2 T01141119
K6A1 132015Z AUTO 23009KT 10SM 11/M13 A2998 RMK AO2 T01141127
K6A1 131955Z AUTO 26007KT 10SM 11/M13 A2998 RMK AO2 T01131131
K6A1 131935Z AUTO 25010G14KT 10SM 11/M13 A2999 RMK AO2 T01081134
K6A1 131915Z AUTO 25007KT 10SM 11/M14 A3000 RMK AO2 T01051144
K6A1 131855Z AUTO 24008KT 10SM 11/M14 A3002 RMK AO2 T01061136
K6A1 131835Z AUTO 25005KT 10SM 10/M14 A3003 RMK AO2 T01001139
K6A1 131815Z AUTO 24003KT 10SM 10/M12 A3004 RMK AO2 T00991121
K6A1 131755Z AUTO 25005KT 10SM 09/M14 A3005 RMK AO2 T00901136 10090 21011
K6A1 131735Z AUTO 25004KT 10SM 09/M13 A3006 RMK AO2 T00861132
K6A1 131715Z AUTO 27005KT 10SM 08/M13 A3008 RMK AO2 T00791132
K6A1 131655Z AUTO 27007KT 10SM 07/M14 A3010 RMK AO2 T00711139
K6A1 131635Z AUTO 00000KT 10SM 07/M14 A3011 RMK AO2 T00661136
K6A1 131620Z AUTO 00000KT 10SM 06/M13 A3011 RMK AO2 T00611132
K6A1 131555Z AUTO 30003KT 10SM 05/M12 A3012 RMK AO2 T00521122
K6A1 131535Z AUTO 36003KT 10SM 04/M12 A3011 RMK AO2 T00411123
K6A1 131515Z AUTO 36004KT 10SM 03/M12 A3011 RMK AO2 T00341123
K6A1 131455Z AUTO 35005KT 10SM 03/M12 A3012 RMK AO2 T00271122
K6A1 131435Z AUTO 34004KT 10SM 02/M11 A3011 RMK AO2 T00221114
K6A1 131415Z AUTO 34005KT 10SM 01/M10 A3011 RMK AO2 T00131103
K6A1 131355Z AUTO 33005KT 10SM 01/M10 A3010 RMK AO2 T00111103
K6A1 131335Z AUTO 31006KT 10SM 01/M10 A3010 RMK AO2 T00061100
K6A1 131315Z AUTO 32004KT 10SM 00/M10 A3010 RMK AO2 T00001097
K6A1 131255Z AUTO 29004KT 10SM M01/M09 A3010 RMK AO2 T10091095
K6A1 131235Z AUTO 30004KT 10SM M01/M10 A3009 RMK AO2 T10101098
K6A1 131215Z AUTO 31003KT 10SM M01/M10 A3009 RMK AO2 T10071099
K6A1 131155Z AUTO 29003KT 10SM M01/M10 A3009 RMK AO2 T10061098 10037 21006
K6A1 131135Z AUTO 31003KT 10SM 00/M10 A3008 RMK AO2 T10041097
K6A1 131115Z AUTO 31004KT 10SM 00/M09 A3007 RMK AO2 T10021095
K6A1 131055Z AUTO 33004KT 10SM 00/M10 A3007 RMK AO2 T00001096
K6A1 131035Z AUTO 33006KT 10SM 00/M09 A3006 RMK AO2 T00001092
K6A1 131015Z AUTO 32004KT 10SM 00/M09 A3006 RMK AO2 T00021089
K6A1 130955Z AUTO 33004KT 10SM 00/M08 A3006 RMK AO2 T00031084
K6A1 130935Z AUTO 32005KT 10SM 01/M08 A3006 RMK AO2 T00101085
K6A1 130915Z AUTO 32006KT 10SM 01/M08 A3006 RMK AO2 T00101080
K6A1 130855Z AUTO 34005KT 10SM 02/M09 A3007 RMK AO2 T00151089
K6A1 130835Z AUTO 33007KT 10SM 02/M09 A3006 RMK AO2 T00181086
K6A1 130815Z AUTO 33007KT 10SM 02/M08 A3006 RMK AO2 T00211080
K6A1 130755Z AUTO 32005KT 10SM 02/M06 A3005 RMK AO2 T00211058
K6A1 130735Z AUTO 32005KT 10SM 03/M05 A3004 RMK AO2 T00261055
K6A1 130715Z AUTO 31005KT 10SM 03/M05 A3003 RMK AO2 T00271049
K6A1 130655Z AUTO 32005KT 10SM 03/M05 A3003 RMK AO2 T00321048
K6A1 130635Z AUTO 32006KT 10SM 03/M03 A3003 RMK AO2 T00321034
K6A1 130615Z AUTO 32004KT 10SM 04/M03 A3002 RMK AO2 T00351030
K6A1 130555Z AUTO 32005KT 10SM 04/M03 A3002 RMK AO2 T00391030 10072 20033 401320033
K6A1 130535Z AUTO 32005KT 10SM 04/M03 A3002 RMK AO2 T00401027
K6A1 130515Z AUTO 31006KT 10SM 04/M02 A3002 RMK AO2 T00431023
K6A1 130455Z AUTO 30007KT 10SM 05/M02 A3002 RMK AO2 T00451020
K6A1 130435Z AUTO 28006KT 10SM 03/M01 A3002 RMK AO2 T00341015
K6A1 130415Z AUTO 28004KT 10SM 05/M01 A3002 RMK AO2 T00451015
K6A1 130355Z AUTO 31005KT 10SM 05/M01 A3002 RMK AO2 T00501013
K6A1 130335Z AUTO 30006KT 10SM 05/M01 A3001 RMK AO2 T00531012
K6A1 130310Z AUTO 30004KT 10SM 06/M01 A3001 RMK AO2 T00571012
K6A1 130255Z AUTO 29006KT 10SM 06/M01 A3000 RMK AO2 T00561013
K6A1 130235Z AUTO 29004KT 10SM 06/M01 A3000 RMK AO2 T00581015
K6A1 130215Z AUTO 28005KT 10SM 06/M01 A3000 RMK AO2 T00601015
K6A1 130155Z AUTO 28006KT 10SM 06/M01 A2999 RMK AO2 T00641015
K6A1 130130Z AUTO 28005KT 10SM 06/M01 A2999 RMK AO2 T00601015
K6A1 130115Z AUTO 29004KT 10SM 07/M01 A2999 RMK AO2 T00661014
K6A1 130055Z AUTO 30005KT 10SM 07/M01 A2999 RMK AO2 T00711013
K6A1 130035Z AUTO 29005KT 10SM 07/M01 A2998 RMK AO2 T00711008
K6A1 130015Z AUTO 29005KT 10SM 07/00 A2998 RMK AO2 T00711005
K6A1 122355Z AUTO 28004KT 10SM 07/00 A2998 RMK AO2 T00721002 10132 20072
K6A1 122335Z AUTO 29003KT 10SM 08/00 A2997 RMK AO2 T00771004
K6A1 122315Z AUTO 30005KT 10SM 09/M01 A2997 RMK AO2 T00851006
K6A1 122255Z AUTO 31006KT 10SM 09/M01 A2996 RMK AO2 T00891006
K6A1 122235Z AUTO 31007KT 10SM 09/M01 A2995 RMK AO2 T00921007
K6A1 122215Z AUTO 32007KT 10SM 10/M01 A2995 RMK AO2 T00971008
K6A1 122155Z AUTO 33010KT 10SM 10/M01 A2995 RMK AO2 T01021009
K6A1 122135Z AUTO 31009KT 10SM 11/M01 A2994 RMK AO2 T01071011
K6A1 122115Z AUTO 34008G17KT 10SM 11/M01 A2994 RMK AO2 T01081011
K6A1 122055Z AUTO 32009G19KT 10SM 11/M01 A2994 RMK AO2 T01111012
K6A1 122035Z AUTO 34015G20KT 10SM 11/M02 A2994 RMK AO2 LTG DSNT E T01141017
K6A1 122015Z AUTO 33008G23KT 10SM 12/M01 A2993 RMK AO2 T01191008
K6A1 121955Z AUTO 32011G21KT 290V350 10SM 12/M01 A2993 RMK AO2 T01211010
K6A1 121935Z AUTO 33015G24KT 10SM 12/M01 A2992 RMK AO2 T01231009
K6A1 121915Z AUTO 33010G20KT 10SM 13/M01 A2992 RMK AO2 T01291007
K6A1 121855Z AUTO 34013G23KT 10SM 13/00 A2991 RMK AO2 T01301005
K6A1 121835Z AUTO 33014G22KT 10SM 13/00 A2992 RMK AO2 T01301004
K6A1 121815Z AUTO 34015G23KT 10SM 13/M01 A2992 RMK AO2 T01281009
K6A1 121755Z AUTO 33016G22KT 10SM 13/M01 A2992 RMK AO2 T01261011 10130 20060
K6A1 121735Z AUTO 33010G20KT 10SM 13/M01 A2992 RMK AO2 T01281006
K6A1 121715Z AUTO 33012G19KT 10SM 13/00 A2992 RMK AO2 T01291001
K6A1 121655Z AUTO 34017G21KT 10SM 12/00 A2992 RMK AO2 T01241005
K6A1 121635Z AUTO 34016G22KT 10SM 12/00 A2994 RMK AO2 T01211005
K6A1 121615Z AUTO 35015G19KT 10SM 12/00 A2994 RMK AO2 T01230001
K6A1 121555Z AUTO 31014G20KT 10SM 12/01 A2994 RMK AO2 T01180006
K6A1 121535Z AUTO 32011G18KT 290V350 10SM 11/02 A2994 RMK AO2 T01110015
K6A1 121515Z AUTO 32009G15KT 290V350 10SM 11/03 A2994 RMK AO2 T01050027
K6A1 121455Z AUTO 31009G14KT 10SM 09/03 A2992 RMK AO2 T00910030
K6A1 121435Z AUTO 30009KT 10SM 09/03 A2991 RMK AO2 T00870031